createdAt,value
2018-04-10T00:01:51.553Z,8.82
2018-04-10T00:04:20.882Z,9.23
2018-04-10T00:06:50.168Z,9.00
2018-04-10T00:09:19.465Z,8.63
2018-04-10T00:11:48.843Z,8.40
2018-04-10T00:14:18.106Z,8.18
2018-04-10T00:16:47.407Z,9.35
2018-04-10T00:19:16.729Z,8.48
2018-04-10T00:21:46.783Z,9.27
2018-04-10T00:24:16.098Z,9.55
2018-04-10T00:26:45.395Z,9.63
2018-04-10T00:29:14.686Z,8.60
2018-04-10T00:31:44.000Z,9.25
2018-04-10T00:34:13.276Z,9.88
2018-04-10T00:36:42.585Z,8.77
2018-04-10T00:39:12.821Z,10.00
2018-04-10T00:41:42.124Z,9.38
2018-04-10T00:44:11.442Z,9.52
2018-04-10T00:46:40.739Z,10.43
2018-04-10T00:49:11.108Z,10.18
2018-04-10T00:51:41.166Z,9.30
2018-04-10T00:54:10.508Z,10.52
2018-04-10T00:56:39.802Z,9.15
2018-04-10T00:59:09.084Z,8.90
2018-04-10T01:01:38.397Z,9.45
2018-04-10T01:04:07.687Z,9.45
2018-04-10T01:06:37.026Z,8.90
2018-04-10T01:09:07.082Z,9.20
2018-04-10T01:11:36.406Z,10.00
2018-04-10T01:14:05.711Z,10.23
2018-04-10T01:16:35.012Z,9.05
2018-04-10T01:19:04.402Z,8.80
2018-04-10T01:21:33.700Z,9.85
2018-04-10T01:24:02.993Z,8.90
2018-04-10T01:26:32.298Z,10.10
2018-04-10T01:29:01.588Z,9.95
2018-04-10T01:31:30.880Z,9.10
2018-04-10T01:34:00.175Z,9.38
2018-04-10T01:36:29.496Z,10.35
2018-04-10T01:38:58.767Z,9.27
2018-04-10T01:41:28.078Z,10.38
2018-04-10T01:43:57.382Z,10.95
2018-04-10T01:46:26.716Z,10.23
2018-04-10T01:51:33.019Z,8.95
2018-04-10T01:54:02.317Z,9.60
2018-04-10T01:56:31.603Z,9.90
2018-04-10T01:59:01.103Z,9.02
2018-04-10T02:01:30.402Z,9.95
2018-04-10T02:03:59.704Z,11.10
2018-04-10T02:06:29.008Z,9.77
2018-04-10T02:08:58.314Z,10.55
2018-04-10T02:11:27.617Z,9.93
2018-04-10T02:13:56.926Z,10.05
2018-04-10T02:16:26.239Z,9.50
2018-04-10T02:18:56.314Z,9.35
2018-04-10T02:21:25.657Z,10.50
2018-04-10T02:23:54.948Z,10.25
2018-04-10T02:26:24.248Z,10.05
2018-04-10T02:28:53.569Z,10.00
2018-04-10T02:31:23.644Z,9.48
2018-04-10T02:33:52.964Z,10.10
2018-04-10T02:36:22.293Z,9.38
2018-04-10T02:38:53.151Z,9.88
2018-04-10T02:41:22.431Z,9.00
2018-04-10T02:43:51.918Z,9.98
2018-04-10T02:46:21.206Z,9.45
2018-04-10T02:48:50.538Z,8.52
2018-04-10T02:51:20.598Z,10.00
2018-04-10T02:53:50.678Z,10.13
2018-04-10T02:56:19.967Z,10.23
2018-04-10T02:58:50.057Z,9.65
2018-04-10T03:01:19.355Z,10.45
2018-04-10T03:03:48.653Z,9.57
2018-04-10T03:06:17.995Z,10.00
2018-04-10T03:08:48.052Z,10.75
2018-04-10T03:11:18.145Z,10.88
2018-04-10T03:13:47.491Z,10.25
2018-04-10T03:16:16.786Z,10.65
2018-04-10T03:18:46.085Z,10.95
2018-04-10T03:21:16.182Z,10.43
2018-04-10T03:23:45.511Z,11.60
2018-04-10T03:26:14.822Z,11.40
2018-04-10T03:28:44.161Z,11.77
2018-04-10T03:31:14.219Z,11.43
2018-04-10T03:33:43.546Z,11.65
2018-04-10T03:36:12.838Z,12.10
2018-04-10T03:38:42.218Z,11.20
2018-04-10T03:41:11.541Z,11.18
2018-04-10T03:43:40.826Z,11.68
2018-04-10T03:46:10.177Z,11.38
2018-04-10T03:48:40.241Z,11.35
2018-04-10T03:51:09.590Z,13.65
2018-04-10T03:53:39.673Z,12.20
2018-04-10T03:56:09.026Z,11.85
2018-04-10T03:58:38.323Z,12.82
2018-04-10T04:01:08.414Z,12.90
2018-04-10T04:03:37.714Z,11.63
2018-04-10T04:06:07.076Z,12.35
2018-04-10T04:08:36.382Z,12.80
2018-04-10T04:11:05.674Z,11.85
2018-04-10T04:13:34.989Z,9.48
2018-04-10T04:16:04.319Z,10.98
2018-04-10T04:18:51.386Z,12.02
2018-04-10T04:24:49.985Z,10.90
2018-04-10T04:27:20.207Z,9.88
2018-04-10T04:29:50.216Z,10.65
2018-04-10T04:32:20.548Z,10.88
2018-04-10T04:34:50.325Z,9.15
2018-04-10T04:37:20.883Z,8.95
2018-04-10T04:39:51.028Z,8.43
2018-04-10T04:42:21.095Z,9.20
2018-04-10T04:44:50.480Z,9.45
2018-04-10T04:47:20.644Z,9.20
2018-04-10T04:49:50.888Z,9.68
2018-04-10T04:52:20.446Z,12.35
2018-04-10T04:54:51.214Z,10.02
2018-04-10T04:57:21.036Z,9.90
2018-04-10T04:59:51.276Z,9.55
2018-04-10T05:02:21.365Z,10.70
2018-04-10T05:04:51.382Z,10.38
2018-04-10T05:07:22.367Z,10.40
2018-04-10T05:09:52.675Z,8.90
2018-04-10T05:12:23.690Z,9.70
2018-04-10T05:14:53.703Z,9.80
2018-04-10T05:17:23.749Z,10.90
2018-04-10T05:19:54.685Z,12.55
2018-04-10T05:22:24.702Z,11.10
2018-04-10T05:24:54.807Z,11.60
2018-04-10T05:27:25.198Z,12.15
2018-04-10T05:29:55.689Z,13.98
2018-04-10T05:32:25.731Z,14.32
2018-04-10T05:34:55.816Z,12.70
2018-04-10T05:37:25.277Z,12.75
2018-04-10T05:39:55.452Z,12.40
2018-04-10T05:42:24.892Z,11.93
2018-04-10T05:44:54.177Z,13.40
2018-04-10T05:47:23.491Z,12.93
2018-04-10T05:49:52.789Z,13.55
2018-04-10T05:52:22.093Z,12.73
2018-04-10T05:54:52.150Z,11.57
2018-04-10T05:57:21.448Z,12.18
2018-04-10T05:59:50.751Z,11.90
2018-04-10T06:02:20.062Z,12.35
2018-04-10T06:04:49.366Z,12.68
2018-04-10T06:07:18.662Z,11.93
2018-04-10T06:09:47.960Z,11.93
2018-04-10T06:12:17.268Z,13.25
2018-04-10T06:14:46.840Z,13.48
2018-04-10T06:17:17.230Z,12.18
2018-04-10T06:19:46.740Z,11.45
2018-04-10T06:22:16.042Z,11.90
2018-04-10T06:24:45.344Z,9.82
2018-04-10T06:27:14.633Z,9.35
2018-04-10T06:29:44.111Z,10.25
2018-04-10T06:32:13.440Z,8.40
2018-04-10T06:34:43.319Z,10.57
2018-04-10T06:37:13.612Z,10.02
2018-04-10T06:39:42.861Z,9.65
2018-04-10T06:42:12.190Z,8.60
2018-04-10T06:44:41.485Z,10.13
2018-04-10T06:47:10.799Z,10.18
2018-04-10T06:49:40.094Z,9.18
2018-04-10T06:52:09.429Z,9.02
2018-04-10T06:54:38.720Z,7.78
2018-04-10T06:57:08.789Z,8.00
2018-04-10T06:59:38.090Z,8.90
2018-04-10T07:02:07.442Z,7.35
2018-04-10T07:04:37.514Z,7.82
2018-04-10T07:07:06.801Z,7.30
2018-04-10T07:09:36.106Z,7.40
2018-04-10T07:12:05.391Z,7.28
2018-04-10T07:14:34.690Z,7.57
2018-04-10T07:17:03.973Z,7.70
2018-04-10T07:19:33.289Z,7.57
2018-04-10T07:22:02.590Z,7.10
2018-04-10T07:24:31.874Z,7.70
2018-04-10T07:27:01.169Z,7.50
2018-04-10T07:29:30.478Z,8.25
2018-04-10T07:31:59.783Z,7.05
2018-04-10T07:34:29.077Z,7.25
2018-04-10T07:36:58.381Z,6.72
2018-04-10T07:39:27.695Z,6.40
2018-04-10T07:41:56.974Z,6.35
2018-04-10T07:44:26.274Z,6.53
2018-04-10T07:46:55.561Z,6.70
2018-04-10T07:49:25.630Z,6.47
2018-04-10T07:51:54.907Z,6.22
2018-04-10T07:54:24.194Z,6.82
2018-04-10T07:56:53.501Z,7.25
2018-04-10T07:59:22.789Z,7.65
2018-04-10T08:01:52.101Z,7.97
2018-04-10T08:04:21.367Z,6.53
2018-04-10T08:06:50.667Z,7.62
2018-04-10T08:09:19.945Z,7.60
2018-04-10T08:11:49.240Z,8.90
2018-04-10T08:14:18.523Z,8.25
2018-04-10T08:16:47.831Z,8.85
2018-04-10T08:19:17.103Z,9.00
2018-04-10T08:21:46.424Z,9.13
2018-04-10T08:24:15.706Z,9.15
2018-04-10T08:26:45.014Z,9.48
2018-04-10T08:29:14.302Z,7.93
2018-04-10T08:31:43.701Z,8.60
2018-04-10T08:34:13.002Z,8.60
2018-04-10T08:36:42.293Z,8.88
2018-04-10T08:39:11.620Z,8.18
2018-04-10T08:41:40.921Z,9.43
2018-04-10T08:44:10.232Z,7.90
2018-04-10T08:46:39.536Z,8.93
2018-04-10T08:49:08.850Z,8.48
2018-04-10T08:51:38.182Z,8.95
2018-04-10T08:54:07.479Z,8.98
2018-04-10T08:56:36.812Z,9.50
2018-04-10T08:59:06.131Z,8.48
2018-04-10T09:01:35.439Z,8.80
2018-04-10T09:04:04.733Z,8.93
2018-04-10T09:06:34.048Z,7.82
2018-04-10T09:09:03.344Z,7.50
2018-04-10T09:11:32.642Z,7.07
2018-04-10T09:14:01.929Z,7.15
2018-04-10T09:16:31.215Z,6.62
2018-04-10T09:19:00.513Z,4.87
2018-04-10T09:21:29.799Z,4.93
2018-04-10T09:23:59.866Z,6.65
2018-04-10T09:26:29.161Z,6.37
2018-04-10T09:28:58.444Z,6.68
2018-04-10T09:31:27.761Z,6.22
2018-04-10T09:33:57.753Z,5.78
2018-04-10T09:36:27.016Z,6.35
2018-04-10T09:38:56.326Z,6.85
2018-04-10T09:41:26.387Z,6.55
2018-04-10T09:43:55.732Z,6.25
2018-04-10T09:46:25.006Z,7.35
2018-04-10T09:48:54.306Z,6.15
2018-04-10T09:51:23.631Z,6.70
2018-04-10T09:53:52.908Z,6.35
2018-04-10T09:56:22.189Z,7.45
2018-04-10T09:58:51.505Z,6.35
2018-04-10T10:01:20.794Z,6.95
2018-04-10T10:03:50.078Z,6.30
2018-04-10T10:06:19.371Z,6.97
2018-04-10T10:08:48.651Z,7.30
2018-04-10T10:11:18.736Z,6.18
2018-04-10T10:13:48.021Z,6.15
2018-04-10T10:16:17.299Z,6.28
2018-04-10T10:18:46.598Z,6.95
2018-04-10T10:21:15.905Z,6.43
2018-04-10T10:23:45.202Z,5.70
2018-04-10T10:26:14.481Z,5.25
2018-04-10T10:28:44.562Z,5.18
2018-04-10T10:31:13.829Z,4.10
2018-04-10T10:33:43.113Z,4.25
2018-04-10T10:36:12.417Z,4.70
2018-04-10T10:38:41.693Z,4.50
2018-04-10T10:41:11.777Z,4.57
2018-04-10T10:43:41.071Z,5.20
2018-04-10T10:46:10.356Z,4.95
2018-04-10T10:48:39.650Z,4.97
2018-04-10T10:51:08.938Z,4.53
2018-04-10T10:53:38.230Z,5.10
2018-04-10T10:56:07.602Z,6.90
2018-04-10T10:58:36.867Z,6.78
2018-04-10T11:01:06.194Z,6.12
2018-04-10T11:03:35.448Z,7.30
2018-04-10T11:06:04.738Z,5.90
2018-04-10T11:08:34.042Z,6.35
2018-04-10T11:11:03.338Z,6.00
2018-04-10T11:13:32.679Z,6.85
2018-04-10T11:16:01.964Z,6.43
2018-04-10T11:18:31.244Z,6.85
2018-04-10T11:21:00.537Z,7.10
2018-04-10T11:23:29.820Z,9.13
2018-04-10T11:25:59.873Z,7.60
2018-04-10T11:28:29.173Z,8.55
2018-04-10T11:30:58.479Z,7.65
2018-04-10T11:33:27.769Z,8.15
2018-04-10T11:35:57.053Z,8.57
2018-04-10T11:38:26.357Z,9.32
2018-04-10T11:40:55.653Z,8.63
2018-04-10T11:43:24.952Z,9.55
2018-04-10T11:45:55.017Z,7.87
2018-04-10T11:48:24.306Z,8.45
2018-04-10T11:50:53.633Z,8.35
2018-04-10T11:53:22.943Z,8.60
2018-04-10T11:55:52.218Z,7.50
2018-04-10T11:58:21.536Z,8.70
2018-04-10T12:00:50.820Z,9.23
2018-04-10T12:03:20.126Z,8.32
2018-04-10T12:05:50.174Z,9.00
2018-04-10T12:08:19.644Z,9.00
2018-04-10T12:10:50.575Z,9.73
2018-04-10T12:13:21.586Z,9.80
2018-04-10T12:15:51.982Z,8.77
2018-04-10T12:18:21.496Z,9.77
2018-04-10T12:20:51.810Z,8.60
2018-04-10T12:23:21.895Z,8.50
2018-04-10T12:25:51.214Z,11.27
2018-04-10T12:28:20.531Z,8.23
2018-04-10T12:30:49.808Z,7.53
2018-04-10T12:33:19.100Z,8.55
2018-04-10T12:35:48.395Z,7.90
2018-04-10T12:38:17.695Z,7.75
2018-04-10T12:40:46.980Z,8.38
2018-04-10T12:43:16.288Z,7.15
2018-04-10T12:45:45.572Z,8.45
2018-04-10T12:48:14.862Z,7.43
2018-04-10T12:50:44.145Z,8.48
2018-04-10T12:53:14.214Z,7.90
2018-04-10T12:55:43.504Z,9.02
2018-04-10T12:58:12.806Z,8.27
2018-04-10T13:00:42.121Z,8.32
2018-04-10T13:03:11.417Z,11.15
2018-04-10T13:05:40.740Z,10.77
2018-04-10T13:08:10.039Z,10.50
2018-04-10T13:10:39.411Z,9.20
2018-04-10T13:13:08.718Z,9.48
2018-04-10T13:15:38.031Z,9.25
2018-04-10T13:18:07.319Z,10.00
2018-04-10T13:20:36.607Z,9.43
2018-04-10T13:23:05.900Z,9.15
2018-04-10T13:25:35.191Z,8.00
2018-04-10T13:28:04.487Z,7.45
2018-04-10T13:30:33.770Z,7.47
2018-04-10T13:33:03.855Z,8.55
2018-04-10T13:35:33.136Z,6.82
2018-04-10T13:38:02.445Z,7.47
2018-04-10T13:40:31.708Z,6.80
2018-04-10T13:43:01.015Z,5.07
2018-04-10T13:45:30.299Z,6.78
2018-04-10T13:48:00.452Z,7.20
2018-04-10T13:50:29.740Z,6.70
2018-04-10T13:52:59.031Z,5.85
2018-04-10T13:55:28.327Z,6.45
2018-04-10T13:57:57.637Z,7.80
2018-04-10T14:00:27.056Z,7.90
2018-04-10T14:02:56.336Z,7.85
2018-04-10T14:05:25.659Z,7.90
2018-04-10T14:07:54.970Z,8.10
2018-04-10T14:10:24.284Z,7.72
2018-04-10T14:12:53.586Z,7.82
2018-04-10T14:15:22.974Z,8.55
2018-04-10T14:17:52.292Z,7.82
2018-04-10T14:20:21.582Z,7.10
2018-04-10T14:22:50.895Z,8.00
2018-04-10T14:25:20.210Z,8.50
2018-04-10T14:27:49.640Z,8.35
2018-04-10T14:30:18.938Z,7.45
2018-04-10T14:32:49.022Z,6.82
2018-04-10T14:35:18.323Z,7.30
2018-04-10T14:37:47.616Z,7.35
2018-04-10T14:40:16.920Z,7.47
2018-04-10T14:42:46.378Z,8.18
2018-04-10T14:45:16.441Z,8.10
2018-04-10T14:47:45.726Z,7.35
2018-04-10T14:50:15.008Z,6.85
2018-04-10T14:52:44.473Z,7.18
2018-04-10T14:55:14.576Z,8.98
2018-04-10T14:57:43.869Z,8.05
2018-04-10T15:00:13.175Z,9.35
2018-04-10T15:02:42.529Z,5.90
2018-04-10T15:05:11.846Z,4.35
2018-04-10T15:07:48.635Z,3.60
2018-04-10T15:10:17.931Z,3.35
2018-04-10T15:12:47.357Z,2.67
2018-04-10T15:15:16.680Z,2.60
2018-04-10T15:17:46.737Z,2.85
2018-04-10T15:20:16.039Z,2.45
2018-04-10T15:22:45.356Z,2.50
2018-04-10T15:25:14.657Z,3.45
2018-04-10T15:27:43.951Z,2.40
2018-04-10T15:30:13.259Z,2.53
2018-04-10T15:32:42.540Z,2.90
2018-04-10T15:35:11.819Z,3.45
2018-04-10T15:37:41.123Z,2.40
2018-04-10T15:40:10.409Z,2.37
2018-04-10T15:42:40.734Z,2.50
2018-04-10T15:45:10.009Z,2.30
2018-04-10T15:47:39.296Z,2.83
2018-04-10T15:50:08.601Z,2.05
2018-04-10T15:52:37.917Z,2.30
2018-04-10T15:55:07.194Z,2.50
2018-04-10T15:57:36.738Z,2.45
2018-04-10T16:00:06.775Z,2.30
2018-04-10T16:02:36.074Z,2.33
2018-04-10T16:05:05.357Z,1.90
2018-04-10T16:07:35.435Z,1.70
2018-04-10T16:10:04.722Z,2.47
2018-04-10T16:12:34.006Z,1.83
2018-04-10T16:15:03.313Z,1.87
2018-04-10T16:17:32.601Z,1.67
2018-04-10T16:20:01.914Z,2.77
2018-04-10T16:22:31.200Z,2.10
2018-04-10T16:25:00.482Z,2.10
2018-04-10T16:27:29.786Z,2.03
2018-04-10T16:29:59.079Z,1.80
2018-04-10T16:32:29.132Z,1.73
2018-04-10T16:34:58.705Z,1.30
2018-04-10T16:37:28.011Z,1.75
2018-04-10T16:39:57.300Z,2.00
2018-04-10T16:42:27.357Z,1.83
2018-04-10T16:44:56.665Z,2.12
2018-04-10T16:47:25.998Z,1.80
2018-04-10T16:49:55.272Z,1.90
2018-04-10T16:52:24.633Z,2.42
2018-04-10T16:54:53.940Z,2.80
2018-04-10T16:57:23.973Z,2.80
2018-04-10T16:59:53.269Z,3.05
2018-04-10T17:02:24.314Z,3.50
2018-04-10T17:04:53.625Z,3.67
2018-04-10T17:07:22.912Z,7.68
2018-04-10T17:09:53.291Z,6.75
2018-04-10T17:12:22.592Z,5.05
2018-04-10T17:14:52.668Z,4.72
2018-04-10T17:17:22.913Z,5.32
2018-04-10T17:19:52.209Z,3.87
2018-04-10T17:22:22.343Z,3.83
2018-04-10T17:24:51.701Z,3.00
2018-04-10T17:27:21.017Z,3.83
2018-04-10T17:29:50.345Z,2.50
2018-04-10T17:32:19.625Z,2.00
2018-04-10T17:34:48.911Z,1.98
2018-04-10T17:37:18.357Z,2.35
2018-04-10T17:39:47.685Z,2.05
2018-04-10T17:42:16.968Z,1.87
2018-04-10T17:44:47.039Z,1.98
2018-04-10T17:47:17.119Z,1.75
2018-04-10T17:49:46.401Z,2.28
2018-04-10T17:52:15.792Z,2.28
2018-04-10T17:54:45.996Z,2.15
2018-04-10T17:57:17.569Z,1.80
2018-04-10T17:59:47.460Z,2.00
2018-04-10T18:02:17.643Z,2.10
2018-04-10T18:04:48.305Z,2.25
2018-04-10T18:07:17.605Z,2.35
2018-04-10T18:09:48.156Z,2.10
2018-04-10T18:12:18.469Z,1.95
2018-04-10T18:14:47.800Z,1.90
2018-04-10T18:17:17.090Z,2.00
2018-04-10T18:19:46.373Z,1.75
2018-04-10T18:22:16.554Z,1.50
2018-04-10T18:24:47.284Z,1.65
2018-04-10T18:27:16.584Z,1.70
2018-04-10T18:29:46.249Z,1.85
2018-04-10T18:32:15.547Z,1.62
2018-04-10T18:34:48.256Z,1.73
2018-04-10T18:37:19.131Z,1.42
2018-04-10T18:39:48.541Z,1.70
2018-04-10T18:42:18.637Z,2.00
2018-04-10T18:44:48.167Z,2.17
2018-04-10T18:47:18.277Z,1.42
2018-04-10T18:49:48.201Z,2.12
2018-04-10T18:52:17.597Z,1.80
2018-04-10T18:54:46.930Z,2.10
2018-04-10T18:57:17.025Z,1.70
2018-04-10T18:59:47.133Z,1.70
2018-04-10T19:02:18.555Z,1.73
2018-04-10T19:04:48.366Z,1.60
2018-04-10T19:07:19.892Z,1.85
2018-04-10T19:09:49.185Z,1.75
2018-04-10T19:12:18.478Z,2.03
2018-04-10T19:14:47.755Z,1.50
2018-04-10T19:17:17.060Z,2.28
2018-04-10T19:19:47.117Z,1.80
2018-04-10T19:22:16.435Z,2.12
2018-04-10T19:24:46.261Z,2.28
2018-04-10T19:27:15.559Z,1.70
2018-04-10T19:29:45.670Z,2.10
2018-04-10T19:32:15.854Z,1.83
2018-04-10T19:34:45.145Z,2.15
2018-04-10T19:37:14.427Z,1.37
2018-04-10T19:39:43.723Z,1.58
2018-04-10T19:42:13.002Z,1.95
2018-04-10T19:44:43.067Z,2.03
2018-04-10T19:47:12.347Z,2.20
2018-04-10T19:49:41.640Z,1.80
2018-04-10T19:52:10.930Z,2.03
2018-04-10T19:54:40.243Z,1.83
2018-04-10T19:57:09.529Z,1.90
2018-04-10T19:59:38.796Z,2.47
2018-04-10T20:02:08.108Z,1.87
2018-04-10T20:04:38.143Z,2.08
2018-04-10T20:07:07.452Z,2.58
2018-04-10T20:09:36.727Z,2.25
2018-04-10T20:12:06.797Z,3.00
2018-04-10T20:14:36.078Z,2.70
2018-04-10T20:17:05.386Z,2.37
2018-04-10T20:19:34.657Z,3.05
2018-04-10T20:22:04.715Z,3.00
2018-04-10T20:24:34.011Z,3.20
2018-04-10T20:27:03.301Z,2.58
2018-04-10T20:29:32.598Z,2.33
2018-04-10T20:32:01.884Z,2.33
2018-04-10T20:34:31.959Z,2.90
2018-04-10T20:37:01.257Z,2.85
2018-04-10T20:39:30.557Z,2.35
2018-04-10T20:41:59.837Z,2.05
2018-04-10T20:44:29.245Z,3.00
2018-04-10T20:46:58.534Z,2.92
2018-04-10T20:49:27.846Z,2.90
2018-04-10T20:51:57.134Z,2.70
2018-04-10T20:54:26.423Z,3.00
2018-04-10T20:56:55.688Z,2.30
2018-04-10T20:59:25.752Z,2.12
2018-04-10T21:01:55.051Z,2.35
2018-04-10T21:04:24.342Z,2.40
2018-04-10T21:06:53.619Z,2.25
2018-04-10T21:09:23.695Z,2.37
2018-04-10T21:11:52.976Z,2.80
2018-04-10T21:14:22.287Z,2.67
2018-04-10T21:16:51.569Z,2.80
2018-04-10T21:19:20.841Z,2.75
2018-04-10T21:21:50.138Z,2.78
2018-04-10T21:24:19.420Z,2.70
2018-04-10T21:26:48.704Z,2.60
2018-04-10T21:29:17.996Z,2.87
2018-04-10T21:31:48.242Z,2.90
2018-04-10T21:34:17.523Z,2.70
2018-04-10T21:36:46.957Z,2.50
2018-04-10T21:39:17.002Z,2.45
2018-04-10T21:41:46.298Z,2.90
2018-04-10T21:44:15.580Z,2.72
2018-04-10T21:46:44.854Z,2.50
2018-04-10T21:49:14.150Z,2.50
2018-04-10T21:51:43.421Z,2.75
2018-04-10T21:54:12.717Z,2.62
2018-04-10T21:56:42.016Z,2.70
2018-04-10T21:59:11.327Z,3.28
2018-04-10T22:01:40.613Z,3.35
2018-04-10T22:04:09.879Z,2.97
2018-04-10T22:06:40.026Z,3.17
2018-04-10T22:09:09.313Z,2.85
2018-04-10T22:11:38.614Z,2.90
2018-04-10T22:14:07.904Z,3.20
2018-04-10T22:16:37.957Z,3.25
2018-04-10T22:19:07.254Z,2.90
2018-04-10T22:21:36.568Z,3.25
2018-04-10T22:24:05.869Z,3.50
2018-04-10T22:26:35.187Z,3.53
2018-04-10T22:29:04.479Z,3.22
2018-04-10T22:31:33.764Z,3.87
2018-04-10T22:34:03.032Z,4.85
2018-04-10T22:36:32.633Z,3.15
2018-04-10T22:39:01.991Z,3.37
2018-04-10T22:41:31.304Z,3.97
2018-04-10T22:44:00.629Z,4.20
2018-04-10T22:46:29.913Z,4.15
2018-04-10T22:48:59.197Z,3.50
2018-04-10T22:51:29.253Z,3.87
2018-04-10T22:53:58.572Z,3.55
2018-04-10T22:56:27.847Z,3.95
2018-04-10T22:58:57.138Z,4.12
2018-04-10T23:01:27.252Z,4.30
2018-04-10T23:03:56.576Z,4.07
2018-04-10T23:06:25.935Z,4.00
2018-04-10T23:08:55.274Z,3.90
2018-04-10T23:11:25.337Z,4.62
2018-04-10T23:13:54.634Z,4.15
2018-04-10T23:16:23.927Z,3.78
2018-04-10T23:18:53.237Z,4.93
2018-04-10T23:21:22.549Z,4.60
2018-04-10T23:23:51.842Z,4.93
2018-04-10T23:26:21.135Z,4.68
2018-04-10T23:28:50.460Z,5.03
2018-04-10T23:31:19.743Z,4.50
2018-04-10T23:33:49.053Z,4.95
2018-04-10T23:36:18.351Z,4.90
2018-04-10T23:38:47.633Z,5.00
2018-04-10T23:41:16.939Z,4.93
2018-04-10T23:43:46.208Z,4.87
2018-04-10T23:46:16.304Z,4.78
2018-04-10T23:48:45.594Z,5.72
2018-04-10T23:51:14.881Z,5.47
2018-04-10T23:53:44.178Z,5.35
2018-04-10T23:56:14.036Z,5.43
2018-04-10T23:58:44.102Z,5.12
